sensor_id;sensor_type;location;lat;lon;timestamp;temperature;humidity
7606;DHT22;3844;53.360;9.738;2023-05-21T00:01:29;12.40;87.90
7606;DHT22;3844;53.360;9.738;2023-05-21T00:03:30;12.40;88.00
7606;DHT22;3844;53.360;9.738;2023-05-21T00:05:31;12.40;87.90
7606;DHT22;3844;53.360;9.738;2023-05-21T00:07:32;12.30;88.00
7606;DHT22;3844;53.360;9.738;2023-05-21T00:09:34;12.30;87.80
7606;DHT22;3844;53.360;9.738;2023-05-21T00:11:35;12.30;87.70
7606;DHT22;3844;53.360;9.738;2023-05-21T00:13:36;12.30;87.70
7606;DHT22;3844;53.360;9.738;2023-05-21T00:15:38;12.30;87.80
7606;DHT22;3844;53.360;9.738;2023-05-21T00:17:39;12.30;87.80
7606;DHT22;3844;53.360;9.738;2023-05-21T00:19:39;12.30;87.60
7606;DHT22;3844;53.360;9.738;2023-05-21T00:21:40;12.20;87.50
7606;DHT22;3844;53.360;9.738;2023-05-21T00:23:41;12.20;87.40
7606;DHT22;3844;53.360;9.738;2023-05-21T00:25:42;12.20;87.30
7606;DHT22;3844;53.360;9.738;2023-05-21T00:27:43;12.20;87.40
7606;DHT22;3844;53.360;9.738;2023-05-21T00:29:44;12.20;87.40
7606;DHT22;3844;53.360;9.738;2023-05-21T00:31:45;12.10;87.40
7606;DHT22;3844;53.360;9.738;2023-05-21T00:33:45;12.10;87.60
7606;DHT22;3844;53.360;9.738;2023-05-21T00:35:46;12.00;87.70
7606;DHT22;3844;53.360;9.738;2023-05-21T00:37:47;12.00;87.80
7606;DHT22;3844;53.360;9.738;2023-05-21T00:39:48;11.90;87.70
7606;DHT22;3844;53.360;9.738;2023-05-21T00:41:48;11.90;87.60
7606;DHT22;3844;53.360;9.738;2023-05-21T00:43:49;11.80;87.70
7606;DHT22;3844;53.360;9.738;2023-05-21T00:45:50;11.80;87.70
7606;DHT22;3844;53.360;9.738;2023-05-21T00:47:53;11.80;87.80
7606;DHT22;3844;53.360;9.738;2023-05-21T00:49:56;11.70;87.90
7606;DHT22;3844;53.360;9.738;2023-05-21T00:51:57;11.70;88.40
7606;DHT22;3844;53.360;9.738;2023-05-21T00:54:00;11.60;88.50
7606;DHT22;3844;53.360;9.738;2023-05-21T00:56:02;11.60;88.70
7606;DHT22;3844;53.360;9.738;2023-05-21T00:58:02;11.60;88.70
7606;DHT22;3844;53.360;9.738;2023-05-21T01:00:04;11.60;88.90
7606;DHT22;3844;53.360;9.738;2023-05-21T01:02:08;11.60;88.70
7606;DHT22;3844;53.360;9.738;2023-05-21T01:04:08;11.70;88.40
7606;DHT22;3844;53.360;9.738;2023-05-21T01:06:10;11.70;88.20
7606;DHT22;3844;53.360;9.738;2023-05-21T01:08:13;11.70;88.10
7606;DHT22;3844;53.360;9.738;2023-05-21T01:10:14;11.70;88.40
7606;DHT22;3844;53.360;9.738;2023-05-21T01:12:15;11.70;88.30
7606;DHT22;3844;53.360;9.738;2023-05-21T01:14:18;11.70;88.20
7606;DHT22;3844;53.360;9.738;2023-05-21T01:16:19;11.70;88.10
7606;DHT22;3844;53.360;9.738;2023-05-21T01:18:20;11.70;88.10
7606;DHT22;3844;53.360;9.738;2023-05-21T01:20:22;11.70;88.10
7606;DHT22;3844;53.360;9.738;2023-05-21T01:22:24;11.60;88.10
7606;DHT22;3844;53.360;9.738;2023-05-21T01:24:25;11.60;88.10
7606;DHT22;3844;53.360;9.738;2023-05-21T01:26:26;11.60;88.00
7606;DHT22;3844;53.360;9.738;2023-05-21T01:28:27;11.60;88.00
7606;DHT22;3844;53.360;9.738;2023-05-21T01:30:29;11.60;88.00
7606;DHT22;3844;53.360;9.738;2023-05-21T01:34:44;11.50;88.30
7606;DHT22;3844;53.360;9.738;2023-05-21T01:37:01;11.40;88.50
7606;DHT22;3844;53.360;9.738;2023-05-21T01:39:08;11.40;88.50
7606;DHT22;3844;53.360;9.738;2023-05-21T01:41:17;11.40;88.40
7606;DHT22;3844;53.360;9.738;2023-05-21T01:43:19;11.40;88.60
7606;DHT22;3844;53.360;9.738;2023-05-21T01:45:21;11.40;88.60
7606;DHT22;3844;53.360;9.738;2023-05-21T01:47:23;11.40;88.60
7606;DHT22;3844;53.360;9.738;2023-05-21T01:49:26;11.30;88.80
7606;DHT22;3844;53.360;9.738;2023-05-21T01:51:27;11.30;88.90
7606;DHT22;3844;53.360;9.738;2023-05-21T01:53:28;11.30;88.80
7606;DHT22;3844;53.360;9.738;2023-05-21T01:55:29;11.30;89.10
7606;DHT22;3844;53.360;9.738;2023-05-21T01:57:30;11.30;89.10
7606;DHT22;3844;53.360;9.738;2023-05-21T01:59:31;11.30;89.00
7606;DHT22;3844;53.360;9.738;2023-05-21T02:01:32;11.30;89.10
7606;DHT22;3844;53.360;9.738;2023-05-21T02:03:34;11.30;89.20
7606;DHT22;3844;53.360;9.738;2023-05-21T02:05:35;11.30;89.20
7606;DHT22;3844;53.360;9.738;2023-05-21T02:07:35;11.30;89.30
7606;DHT22;3844;53.360;9.738;2023-05-21T02:09:36;11.30;89.40
7606;DHT22;3844;53.360;9.738;2023-05-21T02:11:37;11.30;89.40
7606;DHT22;3844;53.360;9.738;2023-05-21T02:13:38;11.30;89.40
7606;DHT22;3844;53.360;9.738;2023-05-21T02:15:41;11.30;89.40
7606;DHT22;3844;53.360;9.738;2023-05-21T02:17:43;11.30;89.40
7606;DHT22;3844;53.360;9.738;2023-05-21T02:19:43;11.30;89.40
7606;DHT22;3844;53.360;9.738;2023-05-21T02:21:44;11.30;89.50
7606;DHT22;3844;53.360;9.738;2023-05-21T02:23:45;11.30;89.60
7606;DHT22;3844;53.360;9.738;2023-05-21T02:25:46;11.30;89.50
7606;DHT22;3844;53.360;9.738;2023-05-21T02:27:46;11.30;89.40
7606;DHT22;3844;53.360;9.738;2023-05-21T02:29:47;11.30;89.50
7606;DHT22;3844;53.360;9.738;2023-05-21T02:31:48;11.30;89.60
7606;DHT22;3844;53.360;9.738;2023-05-21T02:33:50;11.30;89.60
7606;DHT22;3844;53.360;9.738;2023-05-21T02:35:51;11.30;89.70
7606;DHT22;3844;53.360;9.738;2023-05-21T02:37:52;11.30;89.60
7606;DHT22;3844;53.360;9.738;2023-05-21T02:39:53;11.30;89.60
7606;DHT22;3844;53.360;9.738;2023-05-21T02:41:54;11.30;89.70
7606;DHT22;3844;53.360;9.738;2023-05-21T02:43:55;11.30;89.80
7606;DHT22;3844;53.360;9.738;2023-05-21T02:45:55;11.30;89.70
7606;DHT22;3844;53.360;9.738;2023-05-21T02:47:56;11.30;89.60
7606;DHT22;3844;53.360;9.738;2023-05-21T02:49:58;11.30;89.60
7606;DHT22;3844;53.360;9.738;2023-05-21T02:52:00;11.40;89.70
7606;DHT22;3844;53.360;9.738;2023-05-21T02:54:00;11.40;89.80
7606;DHT22;3844;53.360;9.738;2023-05-21T02:56:01;11.40;89.80
7606;DHT22;3844;53.360;9.738;2023-05-21T02:58:02;11.40;89.60
7606;DHT22;3844;53.360;9.738;2023-05-21T03:00:04;11.40;89.60
7606;DHT22;3844;53.360;9.738;2023-05-21T03:02:05;11.40;89.80
7606;DHT22;3844;53.360;9.738;2023-05-21T03:04:06;11.40;89.90
7606;DHT22;3844;53.360;9.738;2023-05-21T03:06:07;11.40;89.80
7606;DHT22;3844;53.360;9.738;2023-05-21T03:08:09;11.40;89.70
7606;DHT22;3844;53.360;9.738;2023-05-21T03:10:10;11.40;89.60
7606;DHT22;3844;53.360;9.738;2023-05-21T03:12:11;11.40;89.60
7606;DHT22;3844;53.360;9.738;2023-05-21T03:14:12;11.40;89.60
7606;DHT22;3844;53.360;9.738;2023-05-21T03:16:12;11.40;89.60
7606;DHT22;3844;53.360;9.738;2023-05-21T03:18:13;11.40;89.80
7606;DHT22;3844;53.360;9.738;2023-05-21T03:20:14;11.40;89.90
7606;DHT22;3844;53.360;9.738;2023-05-21T03:22:18;11.40;89.90
7606;DHT22;3844;53.360;9.738;2023-05-21T03:24:19;11.40;89.80
7606;DHT22;3844;53.360;9.738;2023-05-21T03:26:20;11.40;89.70
7606;DHT22;3844;53.360;9.738;2023-05-21T03:28:21;11.40;89.70
7606;DHT22;3844;53.360;9.738;2023-05-21T03:30:22;11.40;89.70
7606;DHT22;3844;53.360;9.738;2023-05-21T03:32:23;11.40;89.90
7606;DHT22;3844;53.360;9.738;2023-05-21T03:34:24;11.40;90.00
7606;DHT22;3844;53.360;9.738;2023-05-21T03:36:24;11.30;90.00
7606;DHT22;3844;53.360;9.738;2023-05-21T03:38:25;11.40;90.10
7606;DHT22;3844;53.360;9.738;2023-05-21T03:40:26;11.30;90.00
7606;DHT22;3844;53.360;9.738;2023-05-21T03:42:27;11.30;90.20
7606;DHT22;3844;53.360;9.738;2023-05-21T03:44:27;11.30;90.30
7606;DHT22;3844;53.360;9.738;2023-05-21T03:46:31;11.30;90.50
7606;DHT22;3844;53.360;9.738;2023-05-21T03:48:32;11.30;90.50
7606;DHT22;3844;53.360;9.738;2023-05-21T03:50:33;11.30;90.50
7606;DHT22;3844;53.360;9.738;2023-05-21T03:52:34;11.30;90.60
7606;DHT22;3844;53.360;9.738;2023-05-21T03:54:35;11.30;90.70
7606;DHT22;3844;53.360;9.738;2023-05-21T03:56:36;11.40;90.80
7606;DHT22;3844;53.360;9.738;2023-05-21T03:58:37;11.40;90.80
7606;DHT22;3844;53.360;9.738;2023-05-21T04:00:38;11.40;90.70
7606;DHT22;3844;53.360;9.738;2023-05-21T04:02:40;11.50;90.60
7606;DHT22;3844;53.360;9.738;2023-05-21T04:04:41;11.50;90.50
7606;DHT22;3844;53.360;9.738;2023-05-21T04:06:44;11.60;90.40
7606;DHT22;3844;53.360;9.738;2023-05-21T04:08:45;11.60;90.40
7606;DHT22;3844;53.360;9.738;2023-05-21T04:10:46;11.70;90.30
7606;DHT22;3844;53.360;9.738;2023-05-21T04:12:47;11.70;90.20
7606;DHT22;3844;53.360;9.738;2023-05-21T04:14:51;11.80;90.10
7606;DHT22;3844;53.360;9.738;2023-05-21T04:16:52;11.80;90.10
7606;DHT22;3844;53.360;9.738;2023-05-21T04:18:53;11.90;90.10
7606;DHT22;3844;53.360;9.738;2023-05-21T04:20:54;11.90;90.00
7606;DHT22;3844;53.360;9.738;2023-05-21T04:22:55;12.00;89.90
7606;DHT22;3844;53.360;9.738;2023-05-21T04:24:56;12.10;89.80
7606;DHT22;3844;53.360;9.738;2023-05-21T04:26:58;12.10;89.60
7606;DHT22;3844;53.360;9.738;2023-05-21T04:29:00;12.20;89.50
7606;DHT22;3844;53.360;9.738;2023-05-21T04:31:03;12.30;89.40
7606;DHT22;3844;53.360;9.738;2023-05-21T04:33:05;12.40;89.20
7606;DHT22;3844;53.360;9.738;2023-05-21T04:35:08;12.50;89.10
7606;DHT22;3844;53.360;9.738;2023-05-21T04:37:09;12.50;88.90
7606;DHT22;3844;53.360;9.738;2023-05-21T04:39:11;12.60;88.70
7606;DHT22;3844;53.360;9.738;2023-05-21T04:41:12;12.70;88.40
7606;DHT22;3844;53.360;9.738;2023-05-21T04:43:14;12.80;88.20
7606;DHT22;3844;53.360;9.738;2023-05-21T04:45:16;12.80;88.20
7606;DHT22;3844;53.360;9.738;2023-05-21T04:47:17;12.80;88.20
7606;DHT22;3844;53.360;9.738;2023-05-21T04:49:18;12.90;88.10
7606;DHT22;3844;53.360;9.738;2023-05-21T04:51:23;12.90;87.80
7606;DHT22;3844;53.360;9.738;2023-05-21T04:53:26;13.00;87.80
7606;DHT22;3844;53.360;9.738;2023-05-21T04:55:28;13.00;87.70
7606;DHT22;3844;53.360;9.738;2023-05-21T04:57:29;13.10;87.30
7606;DHT22;3844;53.360;9.738;2023-05-21T04:59:30;13.20;87.30
7606;DHT22;3844;53.360;9.738;2023-05-21T05:01:32;13.20;87.10
7606;DHT22;3844;53.360;9.738;2023-05-21T05:03:34;13.30;87.00
7606;DHT22;3844;53.360;9.738;2023-05-21T05:05:35;13.40;86.90
7606;DHT22;3844;53.360;9.738;2023-05-21T05:07:36;13.50;86.70
7606;DHT22;3844;53.360;9.738;2023-05-21T05:09:37;13.70;86.10
7606;DHT22;3844;53.360;9.738;2023-05-21T05:11:39;13.80;85.90
7606;DHT22;3844;53.360;9.738;2023-05-21T05:13:40;14.00;86.10
7606;DHT22;3844;53.360;9.738;2023-05-21T05:15:43;14.30;85.60
7606;DHT22;3844;53.360;9.738;2023-05-21T05:17:44;14.60;85.00
7606;DHT22;3844;53.360;9.738;2023-05-21T05:19:47;14.90;83.70
7606;DHT22;3844;53.360;9.738;2023-05-21T05:21:48;15.20;82.80
7606;DHT22;3844;53.360;9.738;2023-05-21T05:23:49;15.50;80.40
7606;DHT22;3844;53.360;9.738;2023-05-21T05:25:49;15.70;81.10
7606;DHT22;3844;53.360;9.738;2023-05-21T05:27:50;15.90;80.20
7606;DHT22;3844;53.360;9.738;2023-05-21T05:29:51;16.30;79.60
7606;DHT22;3844;53.360;9.738;2023-05-21T05:31:52;16.50;78.50
7606;DHT22;3844;53.360;9.738;2023-05-21T05:33:52;16.80;78.20
7606;DHT22;3844;53.360;9.738;2023-05-21T05:35:53;17.00;77.60
7606;DHT22;3844;53.360;9.738;2023-05-21T05:37:54;17.20;76.70
7606;DHT22;3844;53.360;9.738;2023-05-21T05:39:55;17.20;75.40
7606;DHT22;3844;53.360;9.738;2023-05-21T05:41:56;17.20;75.90
7606;DHT22;3844;53.360;9.738;2023-05-21T05:43:56;17.30;76.30
7606;DHT22;3844;53.360;9.738;2023-05-21T05:45:57;17.40;76.40
7606;DHT22;3844;53.360;9.738;2023-05-21T05:47:58;17.50;76.20
7606;DHT22;3844;53.360;9.738;2023-05-21T05:49:59;17.50;75.90
7606;DHT22;3844;53.360;9.738;2023-05-21T05:52:00;17.40;75.40
7606;DHT22;3844;53.360;9.738;2023-05-21T05:54:01;17.30;75.20
7606;DHT22;3844;53.360;9.738;2023-05-21T05:56:01;17.00;76.30
7606;DHT22;3844;53.360;9.738;2023-05-21T05:58:02;16.80;76.80
7606;DHT22;3844;53.360;9.738;2023-05-21T06:00:04;16.70;77.10
7606;DHT22;3844;53.360;9.738;2023-05-21T06:02:05;16.70;78.00
7606;DHT22;3844;53.360;9.738;2023-05-21T06:04:06;16.70;78.10
7606;DHT22;3844;53.360;9.738;2023-05-21T06:06:07;16.70;78.20
7606;DHT22;3844;53.360;9.738;2023-05-21T06:08:07;16.80;78.30
7606;DHT22;3844;53.360;9.738;2023-05-21T06:10:08;16.90;78.20
7606;DHT22;3844;53.360;9.738;2023-05-21T06:12:09;16.90;77.80
7606;DHT22;3844;53.360;9.738;2023-05-21T06:14:11;17.00;77.80
7606;DHT22;3844;53.360;9.738;2023-05-21T06:16:12;17.10;77.80
7606;DHT22;3844;53.360;9.738;2023-05-21T06:18:13;17.20;77.50
7606;DHT22;3844;53.360;9.738;2023-05-21T06:20:15;17.30;77.10
7606;DHT22;3844;53.360;9.738;2023-05-21T06:22:15;17.40;76.70
7606;DHT22;3844;53.360;9.738;2023-05-21T06:24:16;17.50;76.80
7606;DHT22;3844;53.360;9.738;2023-05-21T06:26:17;17.50;76.90
7606;DHT22;3844;53.360;9.738;2023-05-21T06:28:19;17.60;77.00
7606;DHT22;3844;53.360;9.738;2023-05-21T06:30:20;17.70;76.60
7606;DHT22;3844;53.360;9.738;2023-05-21T06:32:20;17.70;76.10
7606;DHT22;3844;53.360;9.738;2023-05-21T06:34:22;17.70;76.20
7606;DHT22;3844;53.360;9.738;2023-05-21T06:36:23;17.80;75.60
7606;DHT22;3844;53.360;9.738;2023-05-21T06:38:26;17.90;76.40
7606;DHT22;3844;53.360;9.738;2023-05-21T06:40:26;18.00;75.50
7606;DHT22;3844;53.360;9.738;2023-05-21T06:42:27;18.00;75.70
7606;DHT22;3844;53.360;9.738;2023-05-21T06:44:28;18.10;75.40
7606;DHT22;3844;53.360;9.738;2023-05-21T06:46:29;18.30;76.00
7606;DHT22;3844;53.360;9.738;2023-05-21T06:48:30;18.50;76.00
7606;DHT22;3844;53.360;9.738;2023-05-21T06:50:30;18.60;73.50
7606;DHT22;3844;53.360;9.738;2023-05-21T06:52:31;18.70;74.60
7606;DHT22;3844;53.360;9.738;2023-05-21T06:54:32;18.90;74.20
7606;DHT22;3844;53.360;9.738;2023-05-21T06:56:34;19.20;73.90
7606;DHT22;3844;53.360;9.738;2023-05-21T06:58:35;19.60;72.90
7606;DHT22;3844;53.360;9.738;2023-05-21T07:00:36;19.80;73.30
7606;DHT22;3844;53.360;9.738;2023-05-21T07:02:36;20.10;73.00
7606;DHT22;3844;53.360;9.738;2023-05-21T07:04:37;20.30;71.70
7606;DHT22;3844;53.360;9.738;2023-05-21T07:06:38;20.40;71.10
7606;DHT22;3844;53.360;9.738;2023-05-21T07:08:39;20.70;71.90
7606;DHT22;3844;53.360;9.738;2023-05-21T07:10:40;21.20;71.00
7606;DHT22;3844;53.360;9.738;2023-05-21T07:12:41;21.40;68.30
7606;DHT22;3844;53.360;9.738;2023-05-21T07:14:44;21.50;68.00
7606;DHT22;3844;53.360;9.738;2023-05-21T07:16:47;21.70;68.40
7606;DHT22;3844;53.360;9.738;2023-05-21T07:18:50;22.00;67.10
7606;DHT22;3844;53.360;9.738;2023-05-21T07:20:51;22.50;67.10
7606;DHT22;3844;53.360;9.738;2023-05-21T07:22:51;22.70;63.90
7606;DHT22;3844;53.360;9.738;2023-05-21T07:24:52;22.80;64.80
7606;DHT22;3844;53.360;9.738;2023-05-21T07:26:53;22.90;64.20
7606;DHT22;3844;53.360;9.738;2023-05-21T07:28:54;22.90;65.60
7606;DHT22;3844;53.360;9.738;2023-05-21T07:30:55;23.00;65.20
7606;DHT22;3844;53.360;9.738;2023-05-21T07:32:55;22.90;65.20
7606;DHT22;3844;53.360;9.738;2023-05-21T07:34:59;22.80;65.70
7606;DHT22;3844;53.360;9.738;2023-05-21T07:37:02;22.50;65.60
7606;DHT22;3844;53.360;9.738;2023-05-21T07:39:03;22.40;66.60
7606;DHT22;3844;53.360;9.738;2023-05-21T07:41:04;22.40;65.80
7606;DHT22;3844;53.360;9.738;2023-05-21T07:43:05;22.20;66.80
7606;DHT22;3844;53.360;9.738;2023-05-21T07:45:06;22.20;66.30
7606;DHT22;3844;53.360;9.738;2023-05-21T07:47:07;22.30;66.10
7606;DHT22;3844;53.360;9.738;2023-05-21T07:49:08;22.30;66.60
7606;DHT22;3844;53.360;9.738;2023-05-21T07:51:16;22.30;67.30
7606;DHT22;3844;53.360;9.738;2023-05-21T07:53:17;22.60;67.30
7606;DHT22;3844;53.360;9.738;2023-05-21T07:55:17;22.60;67.10
7606;DHT22;3844;53.360;9.738;2023-05-21T07:57:18;22.50;66.80
7606;DHT22;3844;53.360;9.738;2023-05-21T07:59:19;22.60;66.90
7606;DHT22;3844;53.360;9.738;2023-05-21T08:01:20;22.80;67.00
7606;DHT22;3844;53.360;9.738;2023-05-21T08:03:21;23.00;66.50
7606;DHT22;3844;53.360;9.738;2023-05-21T08:05:22;23.10;65.90
7606;DHT22;3844;53.360;9.738;2023-05-21T08:07:23;23.30;66.00
7606;DHT22;3844;53.360;9.738;2023-05-21T08:09:24;23.30;65.70
7606;DHT22;3844;53.360;9.738;2023-05-21T08:11:25;23.50;66.10
7606;DHT22;3844;53.360;9.738;2023-05-21T08:13:26;23.80;65.50
7606;DHT22;3844;53.360;9.738;2023-05-21T08:15:27;24.20;64.90
7606;DHT22;3844;53.360;9.738;2023-05-21T08:17:27;24.50;64.20
7606;DHT22;3844;53.360;9.738;2023-05-21T08:19:28;24.70;63.90
7606;DHT22;3844;53.360;9.738;2023-05-21T08:21:29;25.00;62.80
7606;DHT22;3844;53.360;9.738;2023-05-21T08:23:30;25.00;61.50
7606;DHT22;3844;53.360;9.738;2023-05-21T08:25:30;24.60;62.70
7606;DHT22;3844;53.360;9.738;2023-05-21T08:27:31;24.50;63.60
7606;DHT22;3844;53.360;9.738;2023-05-21T08:29:32;24.30;62.80
7606;DHT22;3844;53.360;9.738;2023-05-21T08:31:34;24.00;64.00
7606;DHT22;3844;53.360;9.738;2023-05-21T08:33:35;23.90;64.70
7606;DHT22;3844;53.360;9.738;2023-05-21T08:35:39;23.90;64.40
7606;DHT22;3844;53.360;9.738;2023-05-21T08:37:40;23.70;65.10
7606;DHT22;3844;53.360;9.738;2023-05-21T08:39:40;23.90;65.30
7606;DHT22;3844;53.360;9.738;2023-05-21T08:41:41;24.10;64.40
7606;DHT22;3844;53.360;9.738;2023-05-21T08:43:54;24.30;64.30
7606;DHT22;3844;53.360;9.738;2023-05-21T08:45:59;24.60;62.90
7606;DHT22;3844;53.360;9.738;2023-05-21T08:48:02;25.00;63.30
7606;DHT22;3844;53.360;9.738;2023-05-21T08:50:04;25.50;62.10
7606;DHT22;3844;53.360;9.738;2023-05-21T08:52:07;25.80;61.20
7606;DHT22;3844;53.360;9.738;2023-05-21T08:54:08;25.90;60.70
7606;DHT22;3844;53.360;9.738;2023-05-21T08:56:10;26.00;61.60
7606;DHT22;3844;53.360;9.738;2023-05-21T08:58:13;26.10;61.20
7606;DHT22;3844;53.360;9.738;2023-05-21T09:00:14;26.30;61.00
7606;DHT22;3844;53.360;9.738;2023-05-21T09:02:15;26.30;59.80
7606;DHT22;3844;53.360;9.738;2023-05-21T09:04:17;26.30;60.00
7606;DHT22;3844;53.360;9.738;2023-05-21T09:06:18;26.40;60.60
7606;DHT22;3844;53.360;9.738;2023-05-21T09:08:30;26.50;60.60
7606;DHT22;3844;53.360;9.738;2023-05-21T09:10:37;26.60;60.40
7606;DHT22;3844;53.360;9.738;2023-05-21T09:12:38;26.50;60.80
7606;DHT22;3844;53.360;9.738;2023-05-21T09:14:40;26.70;61.70
7606;DHT22;3844;53.360;9.738;2023-05-21T09:16:42;27.30;61.40
7606;DHT22;3844;53.360;9.738;2023-05-21T09:18:45;27.80;58.80
7606;DHT22;3844;53.360;9.738;2023-05-21T09:20:45;28.10;56.80
7606;DHT22;3844;53.360;9.738;2023-05-21T09:22:47;27.90;57.00
7606;DHT22;3844;53.360;9.738;2023-05-21T09:24:50;27.60;58.10
7606;DHT22;3844;53.360;9.738;2023-05-21T09:26:51;27.80;57.90
7606;DHT22;3844;53.360;9.738;2023-05-21T09:28:56;28.00;57.10
7606;DHT22;3844;53.360;9.738;2023-05-21T09:31:02;28.00;57.10
7606;DHT22;3844;53.360;9.738;2023-05-21T09:33:03;27.60;57.70
7606;DHT22;3844;53.360;9.738;2023-05-21T09:35:12;27.40;57.60
7606;DHT22;3844;53.360;9.738;2023-05-21T09:37:15;27.20;58.90
7606;DHT22;3844;53.360;9.738;2023-05-21T09:39:28;27.30;58.50
7606;DHT22;3844;53.360;9.738;2023-05-21T09:41:33;27.30;58.80
7606;DHT22;3844;53.360;9.738;2023-05-21T09:43:35;27.30;58.80
7606;DHT22;3844;53.360;9.738;2023-05-21T09:45:36;27.30;60.10
7606;DHT22;3844;53.360;9.738;2023-05-21T09:47:43;27.60;58.90
7606;DHT22;3844;53.360;9.738;2023-05-21T09:49:45;27.80;59.00
7606;DHT22;3844;53.360;9.738;2023-05-21T09:51:45;27.90;59.10
7606;DHT22;3844;53.360;9.738;2023-05-21T09:53:54;28.20;58.40
7606;DHT22;3844;53.360;9.738;2023-05-21T09:55:58;28.70;58.00
7606;DHT22;3844;53.360;9.738;2023-05-21T09:57:59;28.90;55.90
7606;DHT22;3844;53.360;9.738;2023-05-21T09:59:59;28.90;57.10
7606;DHT22;3844;53.360;9.738;2023-05-21T10:02:01;29.10;57.10
7606;DHT22;3844;53.360;9.738;2023-05-21T10:04:05;29.60;56.20
7606;DHT22;3844;53.360;9.738;2023-05-21T10:06:09;30.00;54.80
7606;DHT22;3844;53.360;9.738;2023-05-21T10:08:12;30.10;54.30
7606;DHT22;3844;53.360;9.738;2023-05-21T10:10:14;30.20;55.00
7606;DHT22;3844;53.360;9.738;2023-05-21T10:12:17;30.10;54.90
7606;DHT22;3844;53.360;9.738;2023-05-21T10:14:22;30.20;55.00
7606;DHT22;3844;53.360;9.738;2023-05-21T10:16:24;30.20;54.60
7606;DHT22;3844;53.360;9.738;2023-05-21T10:18:26;30.30;54.60
7606;DHT22;3844;53.360;9.738;2023-05-21T10:20:28;30.70;53.70
7606;DHT22;3844;53.360;9.738;2023-05-21T10:22:29;30.80;53.30
7606;DHT22;3844;53.360;9.738;2023-05-21T10:24:31;31.10;54.50
7606;DHT22;3844;53.360;9.738;2023-05-21T10:26:32;31.70;53.30
7606;DHT22;3844;53.360;9.738;2023-05-21T10:28:34;31.90;51.70
7606;DHT22;3844;53.360;9.738;2023-05-21T10:30:35;31.90;51.60
7606;DHT22;3844;53.360;9.738;2023-05-21T10:32:39;31.80;50.90
7606;DHT22;3844;53.360;9.738;2023-05-21T10:34:45;31.80;51.90
7606;DHT22;3844;53.360;9.738;2023-05-21T10:36:48;31.90;51.60
7606;DHT22;3844;53.360;9.738;2023-05-21T10:38:50;32.00;51.00
7606;DHT22;3844;53.360;9.738;2023-05-21T10:40:52;32.00;51.60
7606;DHT22;3844;53.360;9.738;2023-05-21T10:45:16;32.10;52.50
7606;DHT22;3844;53.360;9.738;2023-05-21T10:49:58;32.50;50.90
7606;DHT22;3844;53.360;9.738;2023-05-21T10:52:06;32.40;50.50
7606;DHT22;3844;53.360;9.738;2023-05-21T10:54:19;31.90;51.40
7606;DHT22;3844;53.360;9.738;2023-05-21T10:56:29;31.50;51.20
7606;DHT22;3844;53.360;9.738;2023-05-21T11:01:08;31.30;52.50
7606;DHT22;3844;53.360;9.738;2023-05-21T11:03:11;31.10;53.00
7606;DHT22;3844;53.360;9.738;2023-05-21T11:05:13;30.90;52.10
7606;DHT22;3844;53.360;9.738;2023-05-21T11:07:14;31.10;53.00
7606;DHT22;3844;53.360;9.738;2023-05-21T11:09:22;31.40;52.10
7606;DHT22;3844;53.360;9.738;2023-05-21T11:11:41;31.80;51.30
7606;DHT22;3844;53.360;9.738;2023-05-21T11:13:47;31.50;52.00
7606;DHT22;3844;53.360;9.738;2023-05-21T11:17:58;31.10;52.10
7606;DHT22;3844;53.360;9.738;2023-05-21T11:20:03;30.90;53.40
7606;DHT22;3844;53.360;9.738;2023-05-21T11:22:08;30.90;52.80
7606;DHT22;3844;53.360;9.738;2023-05-21T11:24:17;30.70;53.90
7606;DHT22;3844;53.360;9.738;2023-05-21T11:26:23;30.60;54.30
7606;DHT22;3844;53.360;9.738;2023-05-21T11:28:32;31.00;52.80
7606;DHT22;3844;53.360;9.738;2023-05-21T11:30:33;31.00;51.60
7606;DHT22;3844;53.360;9.738;2023-05-21T11:32:38;31.00;52.90
7606;DHT22;3844;53.360;9.738;2023-05-21T11:34:43;31.10;52.80
7606;DHT22;3844;53.360;9.738;2023-05-21T11:36:46;31.20;52.40
7606;DHT22;3844;53.360;9.738;2023-05-21T11:39:11;31.20;52.50
7606;DHT22;3844;53.360;9.738;2023-05-21T11:41:19;31.40;52.80
7606;DHT22;3844;53.360;9.738;2023-05-21T11:43:21;31.40;52.00
7606;DHT22;3844;53.360;9.738;2023-05-21T11:45:27;31.00;51.90
7606;DHT22;3844;53.360;9.738;2023-05-21T11:47:29;30.70;53.40
7606;DHT22;3844;53.360;9.738;2023-05-21T11:49:32;30.70;53.50
7606;DHT22;3844;53.360;9.738;2023-05-21T11:51:32;30.70;53.10
7606;DHT22;3844;53.360;9.738;2023-05-21T11:53:33;30.80;53.00
7606;DHT22;3844;53.360;9.738;2023-05-21T11:55:37;30.70;53.30
7606;DHT22;3844;53.360;9.738;2023-05-21T11:57:43;30.80;52.60
7606;DHT22;3844;53.360;9.738;2023-05-21T11:59:44;30.70;52.40
7606;DHT22;3844;53.360;9.738;2023-05-21T12:01:45;30.60;52.90
7606;DHT22;3844;53.360;9.738;2023-05-21T12:03:46;30.60;53.60
7606;DHT22;3844;53.360;9.738;2023-05-21T12:05:48;30.30;54.00
7606;DHT22;3844;53.360;9.738;2023-05-21T12:07:49;30.30;54.00
7606;DHT22;3844;53.360;9.738;2023-05-21T12:09:50;30.40;53.90
7606;DHT22;3844;53.360;9.738;2023-05-21T12:11:52;30.40;53.60
7606;DHT22;3844;53.360;9.738;2023-05-21T12:13:57;30.30;54.10
7606;DHT22;3844;53.360;9.738;2023-05-21T12:15:58;30.50;53.90
7606;DHT22;3844;53.360;9.738;2023-05-21T12:17:59;30.70;54.10
7606;DHT22;3844;53.360;9.738;2023-05-21T12:20:00;30.80;52.80
7606;DHT22;3844;53.360;9.738;2023-05-21T12:22:06;30.40;52.10
7606;DHT22;3844;53.360;9.738;2023-05-21T12:24:14;30.30;53.20
7606;DHT22;3844;53.360;9.738;2023-05-21T12:26:15;30.50;54.70
7606;DHT22;3844;53.360;9.738;2023-05-21T12:28:16;30.80;53.70
7606;DHT22;3844;53.360;9.738;2023-05-21T12:30:17;31.70;52.10
7606;DHT22;3844;53.360;9.738;2023-05-21T12:32:19;31.70;52.20
7606;DHT22;3844;53.360;9.738;2023-05-21T12:34:44;32.00;50.20
7606;DHT22;3844;53.360;9.738;2023-05-21T12:36:45;32.20;51.20
7606;DHT22;3844;53.360;9.738;2023-05-21T12:38:48;32.20;51.20
7606;DHT22;3844;53.360;9.738;2023-05-21T12:40:49;32.20;50.20
7606;DHT22;3844;53.360;9.738;2023-05-21T12:42:50;32.20;50.20
7606;DHT22;3844;53.360;9.738;2023-05-21T12:44:52;31.90;50.60
7606;DHT22;3844;53.360;9.738;2023-05-21T12:46:53;31.90;50.60
7606;DHT22;3844;53.360;9.738;2023-05-21T12:48:53;32.00;50.70
7606;DHT22;3844;53.360;9.738;2023-05-21T12:51:00;32.00;50.70
7606;DHT22;3844;53.360;9.738;2023-05-21T12:53:01;31.90;50.80
7606;DHT22;3844;53.360;9.738;2023-05-21T12:55:03;31.90;49.60
7606;DHT22;3844;53.360;9.738;2023-05-21T12:57:08;31.70;50.80
7606;DHT22;3844;53.360;9.738;2023-05-21T12:59:12;31.50;51.00
7606;DHT22;3844;53.360;9.738;2023-05-21T13:01:16;31.40;51.50
7606;DHT22;3844;53.360;9.738;2023-05-21T13:03:18;31.50;51.90
7606;DHT22;3844;53.360;9.738;2023-05-21T13:05:22;31.40;51.10
7606;DHT22;3844;53.360;9.738;2023-05-21T13:07:29;31.30;50.80
7606;DHT22;3844;53.360;9.738;2023-05-21T13:09:30;31.30;50.60
7606;DHT22;3844;53.360;9.738;2023-05-21T13:11:31;31.30;51.70
7606;DHT22;3844;53.360;9.738;2023-05-21T13:13:32;31.30;51.60
7606;DHT22;3844;53.360;9.738;2023-05-21T13:17:34;31.50;50.80
7606;DHT22;3844;53.360;9.738;2023-05-21T13:19:35;31.60;49.90
7606;DHT22;3844;53.360;9.738;2023-05-21T13:23:37;31.40;50.40
7606;DHT22;3844;53.360;9.738;2023-05-21T13:25:37;31.50;50.40
7606;DHT22;3844;53.360;9.738;2023-05-21T13:27:39;31.30;49.90
7606;DHT22;3844;53.360;9.738;2023-05-21T13:29:40;30.80;51.20
7606;DHT22;3844;53.360;9.738;2023-05-21T13:31:42;30.50;52.80
7606;DHT22;3844;53.360;9.738;2023-05-21T13:33:43;30.40;52.60